sensor_id;sensor_type;location;lat;lon;timestamp;pressure;altitude;pressure_sealevel;temperature;humidity
69624;BME280;56843;52.020;5.670;2022-10-23T00:00:21;101240.38;;;10.45;95.53
69624;BME280;56843;52.020;5.670;2022-10-23T00:01:51;101236.63;;;10.46;95.33
69624;BME280;56843;52.020;5.670;2022-10-23T00:03:22;101232.38;;;10.45;95.49
69624;BME280;56843;52.020;5.670;2022-10-23T00:04:53;101231.75;;;10.48;95.57
69624;BME280;56843;52.020;5.670;2022-10-23T00:06:23;101227.50;;;10.47;95.40
69624;BME280;56843;52.020;5.670;2022-10-23T00:07:57;101235.84;;;10.46;95.65
69624;BME280;56843;52.020;5.670;2022-10-23T00:09:28;101235.84;;;10.46;95.39
69624;BME280;56843;52.020;5.670;2022-10-23T00:10:58;101230.03;;;10.44;95.75
69624;BME280;56843;52.020;5.670;2022-10-23T00:12:29;101231.09;;;10.43;95.48
69624;BME280;56843;52.020;5.670;2022-10-23T00:14:02;101227.97;;;10.41;95.44
69624;BME280;56843;52.020;5.670;2022-10-23T00:15:34;101227.19;;;10.40;95.75
69624;BME280;56843;52.020;5.670;2022-10-23T00:17:04;101231.75;;;10.40;95.92
69624;BME280;56843;52.020;5.670;2022-10-23T00:18:36;101227.97;;;10.41;95.77
69624;BME280;56843;52.020;5.670;2022-10-23T00:20:07;101230.97;;;10.39;95.76
69624;BME280;56843;52.020;5.670;2022-10-23T00:21:38;101225.63;;;10.39;95.97
69624;BME280;56843;52.020;5.670;2022-10-23T00:23:09;101230.97;;;10.39;95.59
69624;BME280;56843;52.020;5.670;2022-10-23T00:24:39;101225.28;;;10.41;95.95
69624;BME280;56843;52.020;5.670;2022-10-23T00:26:10;101233.31;;;10.41;96.04
69624;BME280;56843;52.020;5.670;2022-10-23T00:27:44;101226.09;;;10.41;95.78
69624;BME280;56843;52.020;5.670;2022-10-23T00:29:15;101229.22;;;10.43;95.97
69624;BME280;56843;52.020;5.670;2022-10-23T00:30:45;101234.09;;;10.41;95.92
69624;BME280;56843;52.020;5.670;2022-10-23T00:32:16;101231.44;;;10.41;95.77
69624;BME280;56843;52.020;5.670;2022-10-23T00:33:47;101229.88;;;10.40;95.98
69624;BME280;56843;52.020;5.670;2022-10-23T00:35:18;101225.63;;;10.39;95.89
69624;BME280;56843;52.020;5.670;2022-10-23T00:36:48;101236.91;;;10.36;95.62
69624;BME280;56843;52.020;5.670;2022-10-23T00:38:19;101232.69;;;10.35;95.78
69624;BME280;56843;52.020;5.670;2022-10-23T00:39:50;101230.31;;;10.33;96.11
69624;BME280;56843;52.020;5.670;2022-10-23T00:41:24;101235.97;;;10.32;96.05
69624;BME280;56843;52.020;5.670;2022-10-23T00:42:57;101230.16;;;10.30;96.04
69624;BME280;56843;52.020;5.670;2022-10-23T00:45:58;101218.19;;;10.27;96.06
69624;BME280;56843;52.020;5.670;2022-10-23T00:47:28;101220.56;;;10.29;95.99
69624;BME280;56843;52.020;5.670;2022-10-23T00:48:59;101223.72;;;10.31;96.04
69624;BME280;56843;52.020;5.670;2022-10-23T00:50:31;101215.88;;;10.34;96.07
69624;BME280;56843;52.020;5.670;2022-10-23T00:52:06;101224.53;;;10.40;96.12
69624;BME280;56843;52.020;5.670;2022-10-23T00:53:37;101221.53;;;10.42;96.19
69624;BME280;56843;52.020;5.670;2022-10-23T00:55:08;101220.44;;;10.43;96.20
69624;BME280;56843;52.020;5.670;2022-10-23T00:56:41;101223.91;;;10.43;95.86
69624;BME280;56843;52.020;5.670;2022-10-23T00:58:17;101215.28;;;10.46;96.25
69624;BME280;56843;52.020;5.670;2022-10-23T00:59:49;101218.72;;;10.47;96.29
69624;BME280;56843;52.020;5.670;2022-10-23T01:03:49;101216.53;;;10.40;95.97
69624;BME280;56843;52.020;5.670;2022-10-23T01:05:24;101218.56;;;10.43;96.21
69624;BME280;56843;52.020;5.670;2022-10-23T01:07:07;101208.66;;;10.44;96.12
69624;BME280;56843;52.020;5.670;2022-10-23T01:08:55;101213.22;;;10.43;96.23
69624;BME280;56843;52.020;5.670;2022-10-23T01:10:39;101213.53;;;10.42;96.22
69624;BME280;56843;52.020;5.670;2022-10-23T01:14:22;101214.63;;;10.41;96.05
69624;BME280;56843;52.020;5.670;2022-10-23T01:16:19;101214.94;;;10.39;95.98
69624;BME280;56843;52.020;5.670;2022-10-23T01:19:55;101220.59;;;10.38;96.17
69624;BME280;56843;52.020;5.670;2022-10-23T01:21:35;101215.06;;;10.34;96.10
69624;BME280;56843;52.020;5.670;2022-10-23T01:23:30;101216.66;;;10.35;96.08
69624;BME280;56843;52.020;5.670;2022-10-23T01:25:14;101219.16;;;10.31;96.44
69624;BME280;56843;52.020;5.670;2022-10-23T01:27:09;101206.59;;;10.32;96.10
69624;BME280;56843;52.020;5.670;2022-10-23T01:30:16;101213.66;;;10.28;96.36
69624;BME280;56843;52.020;5.670;2022-10-23T01:31:50;101205.97;;;10.26;96.02
69624;BME280;56843;52.020;5.670;2022-10-23T01:33:34;101199.03;;;10.25;96.24
69624;BME280;56843;52.020;5.670;2022-10-23T01:35:12;101200.91;;;10.25;96.59
69624;BME280;56843;52.020;5.670;2022-10-23T01:36:46;101195.28;;;10.26;96.31
69624;BME280;56843;52.020;5.670;2022-10-23T01:38:37;101199.50;;;10.27;96.56
69624;BME280;56843;52.020;5.670;2022-10-23T01:40:48;101202.19;;;10.27;96.67
69624;BME280;56843;52.020;5.670;2022-10-23T01:42:24;101198.25;;;10.25;96.61
69624;BME280;56843;52.020;5.670;2022-10-23T01:45:39;101181.94;;;10.26;96.52
69624;BME280;56843;52.020;5.670;2022-10-23T01:47:16;101183.03;;;10.25;96.61
69624;BME280;56843;52.020;5.670;2022-10-23T01:49:14;101182.56;;;10.23;96.50
69624;BME280;56843;52.020;5.670;2022-10-23T01:50:47;101183.34;;;10.24;96.50
69624;BME280;56843;52.020;5.670;2022-10-23T01:52:18;101190.56;;;10.23;96.50
69624;BME280;56843;52.020;5.670;2022-10-23T01:53:55;101181.47;;;10.24;96.56
69624;BME280;56843;52.020;5.670;2022-10-23T01:55:27;101186.00;;;10.24;96.48
69624;BME280;56843;52.020;5.670;2022-10-23T01:57:01;101174.22;;;10.25;96.23
69624;BME280;56843;52.020;5.670;2022-10-23T01:58:34;101176.13;;;10.24;96.36
69624;BME280;56843;52.020;5.670;2022-10-23T02:00:08;101179.56;;;10.25;96.32
69624;BME280;56843;52.020;5.670;2022-10-23T02:01:56;101180.69;;;10.24;96.24
69624;BME280;56843;52.020;5.670;2022-10-23T02:03:30;101170.78;;;10.24;96.15
69624;BME280;56843;52.020;5.670;2022-10-23T02:05:06;101166.22;;;10.25;96.28
69624;BME280;56843;52.020;5.670;2022-10-23T02:06:38;101165.75;;;10.23;96.50
69624;BME280;56843;52.020;5.670;2022-10-23T02:08:09;101155.38;;;10.21;96.21
69624;BME280;56843;52.020;5.670;2022-10-23T02:09:40;101159.94;;;10.21;96.42
69624;BME280;56843;52.020;5.670;2022-10-23T02:11:16;101156.47;;;10.20;96.54
69624;BME280;56843;52.020;5.670;2022-10-23T02:13:06;101157.59;;;10.19;96.32
69624;BME280;56843;52.020;5.670;2022-10-23T02:14:52;101151.28;;;10.15;96.48
69624;BME280;56843;52.020;5.670;2022-10-23T02:16:42;101151.28;;;10.15;96.52
69624;BME280;56843;52.020;5.670;2022-10-23T02:23:31;101146.84;;;10.11;96.43
69624;BME280;56843;52.020;5.670;2022-10-23T02:25:32;101138.38;;;10.09;96.27
69624;BME280;56843;52.020;5.670;2022-10-23T02:27:15;101131.47;;;10.08;96.42
69624;BME280;56843;52.020;5.670;2022-10-23T02:28:56;101133.34;;;10.07;96.59
69624;BME280;56843;52.020;5.670;2022-10-23T02:30:28;101125.66;;;10.06;96.54
69624;BME280;56843;52.020;5.670;2022-10-23T02:32:12;101135.53;;;10.05;96.57
69624;BME280;56843;52.020;5.670;2022-10-23T02:33:44;101124.84;;;10.05;96.55
69624;BME280;56843;52.020;5.670;2022-10-23T02:35:19;101136.63;;;10.04;96.65
69624;BME280;56843;52.020;5.670;2022-10-23T02:36:54;101132.38;;;10.03;96.88
69624;BME280;56843;52.020;5.670;2022-10-23T02:38:42;101139.78;;;10.06;96.63
69624;BME280;56843;52.020;5.670;2022-10-23T02:40:14;101140.72;;;10.02;96.85
69624;BME280;56843;52.020;5.670;2022-10-23T02:41:55;101130.66;;;9.99;96.69
69624;BME280;56843;52.020;5.670;2022-10-23T02:43:37;101124.03;;;9.96;96.69
69624;BME280;56843;52.020;5.670;2022-10-23T02:48:54;101125.94;;;9.96;96.86
69624;BME280;56843;52.020;5.670;2022-10-23T02:56:44;101140.81;;;9.88;97.08
69624;BME280;56843;52.020;5.670;2022-10-23T02:58:43;101121.06;;;9.89;97.04
69624;BME280;56843;52.020;5.670;2022-10-23T03:00:17;101113.34;;;9.88;96.96
69624;BME280;56843;52.020;5.670;2022-10-23T03:01:55;101118.69;;;9.88;96.86
69624;BME280;56843;52.020;5.670;2022-10-23T03:03:32;101117.13;;;9.87;97.02
69624;BME280;56843;52.020;5.670;2022-10-23T03:05:08;101120.56;;;9.87;96.93
69624;BME280;56843;52.020;5.670;2022-10-23T03:06:40;101106.63;;;9.90;96.93
69624;BME280;56843;52.020;5.670;2022-10-23T03:08:12;101105.06;;;9.89;97.04
69624;BME280;56843;52.020;5.670;2022-10-23T03:09:44;101110.88;;;9.91;96.92
69624;BME280;56843;52.020;5.670;2022-10-23T03:11:15;101108.97;;;9.92;96.83
69624;BME280;56843;52.020;5.670;2022-10-23T03:12:45;101099.88;;;9.93;97.00
69624;BME280;56843;52.020;5.670;2022-10-23T03:14:18;101096.75;;;9.91;96.86
69624;BME280;56843;52.020;5.670;2022-10-23T03:15:48;101098.28;;;9.92;96.85
69624;BME280;56843;52.020;5.670;2022-10-23T03:17:19;101097.53;;;9.91;96.91
69624;BME280;56843;52.020;5.670;2022-10-23T03:18:50;101100.19;;;9.91;97.03
69624;BME280;56843;52.020;5.670;2022-10-23T03:20:21;101093.75;;;9.92;96.82
69624;BME280;56843;52.020;5.670;2022-10-23T03:21:52;101091.28;;;9.96;96.98
69624;BME280;56843;52.020;5.670;2022-10-23T03:23:24;101089.06;;;9.98;96.84
69624;BME280;56843;52.020;5.670;2022-10-23T03:24:54;101095.66;;;10.00;96.95
69624;BME280;56843;52.020;5.670;2022-10-23T03:26:25;101086.56;;;10.01;96.94
69624;BME280;56843;52.020;5.670;2022-10-23T03:27:55;101084.81;;;10.05;96.71
69624;BME280;56843;52.020;5.670;2022-10-23T03:29:26;101078.41;;;10.06;96.84
69624;BME280;56843;52.020;5.670;2022-10-23T03:30:57;101082.34;;;10.09;97.09
69624;BME280;56843;52.020;5.670;2022-10-23T03:32:27;101080.16;;;10.11;96.74
69624;BME280;56843;52.020;5.670;2022-10-23T03:33:58;101081.69;;;10.12;96.48
69624;BME280;56843;52.020;5.670;2022-10-23T03:35:29;101077.16;;;10.12;96.73
69624;BME280;56843;52.020;5.670;2022-10-23T03:36:59;101083.75;;;10.15;96.45
69624;BME280;56843;52.020;5.670;2022-10-23T03:38:30;101083.75;;;10.15;96.88
69624;BME280;56843;52.020;5.670;2022-10-23T03:40:01;101080.28;;;10.14;96.60
69624;BME280;56843;52.020;5.670;2022-10-23T03:41:34;101074.16;;;10.14;96.56
69624;BME280;56843;52.020;5.670;2022-10-23T03:43:05;101068.06;;;10.13;96.51
69624;BME280;56843;52.020;5.670;2022-10-23T03:44:36;101072.59;;;10.13;96.10
69624;BME280;56843;52.020;5.670;2022-10-23T03:46:07;101069.16;;;10.12;96.79
69624;BME280;56843;52.020;5.670;2022-10-23T03:47:41;101063.03;;;10.12;96.43
69624;BME280;56843;52.020;5.670;2022-10-23T03:49:12;101065.88;;;10.15;96.73
69624;BME280;56843;52.020;5.670;2022-10-23T03:50:46;101057.56;;;10.17;96.54
69624;BME280;56843;52.020;5.670;2022-10-23T03:52:17;101054.28;;;10.20;96.79
69624;BME280;56843;52.020;5.670;2022-10-23T03:53:47;101056.63;;;10.21;96.60
69624;BME280;56843;52.020;5.670;2022-10-23T03:55:19;101058.69;;;10.24;96.32
69624;BME280;56843;52.020;5.670;2022-10-23T03:56:50;101058.38;;;10.26;96.44
69624;BME280;56843;52.020;5.670;2022-10-23T03:58:21;101046.59;;;10.27;96.59
69624;BME280;56843;52.020;5.670;2022-10-23T03:59:52;101050.50;;;10.29;96.43
69624;BME280;56843;52.020;5.670;2022-10-23T04:01:23;101048.94;;;10.28;96.73
69624;BME280;56843;52.020;5.670;2022-10-23T04:02:54;101043.28;;;10.30;96.38
69624;BME280;56843;52.020;5.670;2022-10-23T04:04:25;101047.06;;;10.29;96.31
69624;BME280;56843;52.020;5.670;2022-10-23T04:05:55;101045.16;;;10.29;96.38
69624;BME280;56843;52.020;5.670;2022-10-23T04:07:26;101045.94;;;10.30;96.47
69624;BME280;56843;52.020;5.670;2022-10-23T04:08:57;101041.41;;;10.30;96.35
69624;BME280;56843;52.020;5.670;2022-10-23T04:10:28;101037.16;;;10.29;96.45
69624;BME280;56843;52.020;5.670;2022-10-23T04:11:59;101032.94;;;10.28;96.37
69624;BME280;56843;52.020;5.670;2022-10-23T04:13:31;101024.13;;;10.28;96.18
69624;BME280;56843;52.020;5.670;2022-10-23T04:15:02;101024.91;;;10.28;96.26
69624;BME280;56843;52.020;5.670;2022-10-23T04:16:33;101021.13;;;10.29;96.74
69624;BME280;56843;52.020;5.670;2022-10-23T04:18:03;101017.69;;;10.29;96.51
69624;BME280;56843;52.020;5.670;2022-10-23T04:19:35;101011.56;;;10.28;96.31
69624;BME280;56843;52.020;5.670;2022-10-23T04:21:06;101006.38;;;10.32;96.48
69624;BME280;56843;52.020;5.670;2022-10-23T04:22:36;101006.09;;;10.33;96.39
69624;BME280;56843;52.020;5.670;2022-10-23T04:24:07;101004.19;;;10.34;96.47
69624;BME280;56843;52.020;5.670;2022-10-23T04:25:37;101007.97;;;10.33;96.46
69624;BME280;56843;52.020;5.670;2022-10-23T04:27:08;101001.03;;;10.32;96.23
69624;BME280;56843;52.020;5.670;2022-10-23T04:28:39;101001.03;;;10.32;96.24
69624;BME280;56843;52.020;5.670;2022-10-23T04:30:10;101001.03;;;10.32;96.42
69624;BME280;56843;52.020;5.670;2022-10-23T04:31:41;101004.50;;;10.32;96.33
69624;BME280;56843;52.020;5.670;2022-10-23T04:33:12;101009.50;;;10.34;96.58
69624;BME280;56843;52.020;5.670;2022-10-23T04:34:42;101014.84;;;10.34;96.42
69624;BME280;56843;52.020;5.670;2022-10-23T04:36:13;100999.63;;;10.34;96.19
69624;BME280;56843;52.020;5.670;2022-10-23T04:37:44;101002.47;;;10.38;96.13
69624;BME280;56843;52.020;5.670;2022-10-23T04:39:14;101004.03;;;10.39;96.36
69624;BME280;56843;52.020;5.670;2022-10-23T04:40:45;100999.63;;;10.43;96.52
69624;BME280;56843;52.020;5.670;2022-10-23T04:42:16;101000.88;;;10.46;96.45
69624;BME280;56843;52.020;5.670;2022-10-23T04:43:47;100997.13;;;10.47;96.24
69624;BME280;56843;52.020;5.670;2022-10-23T04:45:18;100993.31;;;10.48;96.19
69624;BME280;56843;52.020;5.670;2022-10-23T04:46:49;100989.56;;;10.49;96.21
69624;BME280;56843;52.020;5.670;2022-10-23T04:48:19;100994.91;;;10.49;96.39
69624;BME280;56843;52.020;5.670;2022-10-23T04:50:14;100988.78;;;10.48;96.02
69624;BME280;56843;52.020;5.670;2022-10-23T04:52:03;100992.53;;;10.47;96.13
69624;BME280;56843;52.020;5.670;2022-10-23T04:53:42;100993.31;;;10.48;96.56
69624;BME280;56843;52.020;5.670;2022-10-23T04:55:49;100990.38;;;10.49;96.41
69624;BME280;56843;52.020;5.670;2022-10-23T04:57:26;100990.38;;;10.49;96.16
69624;BME280;56843;52.020;5.670;2022-10-23T04:59:02;100980.91;;;10.52;96.08
69624;BME280;56843;52.020;5.670;2022-10-23T05:00:34;100995.06;;;10.52;96.39
69624;BME280;56843;52.020;5.670;2022-10-23T05:02:05;100989.38;;;10.54;96.35
69624;BME280;56843;52.020;5.670;2022-10-23T05:03:36;100992.53;;;10.56;96.23
69624;BME280;56843;52.020;5.670;2022-10-23T05:05:08;100988.44;;;10.58;96.25
69624;BME280;56843;52.020;5.670;2022-10-23T05:06:39;100988.28;;;10.63;96.30
69624;BME280;56843;52.020;5.670;2022-10-23T05:08:42;100985.28;;;10.65;96.26
69624;BME280;56843;52.020;5.670;2022-10-23T05:10:12;100973.19;;;10.67;96.15
69624;BME280;56843;52.020;5.670;2022-10-23T05:11:59;100981.19;;;10.67;95.94
69624;BME280;56843;52.020;5.670;2022-10-23T05:13:29;100970.50;;;10.67;95.72
69624;BME280;56843;52.020;5.670;2022-10-23T05:15:00;100984.31;;;10.69;95.68
69624;BME280;56843;52.020;5.670;2022-10-23T05:16:42;100967.22;;;10.70;95.94
69624;BME280;56843;52.020;5.670;2022-10-23T05:18:25;100966.09;;;10.71;95.79
69624;BME280;56843;52.020;5.670;2022-10-23T05:20:00;100972.22;;;10.72;96.14
69624;BME280;56843;52.020;5.670;2022-10-23T05:21:33;100974.28;;;10.75;95.82
69624;BME280;56843;52.020;5.670;2022-10-23T05:23:10;100975.81;;;10.76;95.67
69624;BME280;56843;52.020;5.670;2022-10-23T05:24:43;100965.13;;;10.76;95.92
69624;BME280;56843;52.020;5.670;2022-10-23T05:26:14;100963.25;;;10.76;95.92
69624;BME280;56843;52.020;5.670;2022-10-23T05:27:48;100974.41;;;10.78;95.92
69624;BME280;56843;52.020;5.670;2022-10-23T05:29:20;100963.09;;;10.81;95.90
69624;BME280;56843;52.020;5.670;2022-10-23T05:30:50;100972.81;;;10.86;95.93
69624;BME280;56843;52.020;5.670;2022-10-23T05:32:23;100974.53;;;10.90;95.64
69624;BME280;56843;52.020;5.670;2022-10-23T05:33:56;100972.44;;;10.96;95.67
69624;BME280;56843;52.020;5.670;2022-10-23T05:35:27;100967.28;;;10.99;95.38
69624;BME280;56843;52.020;5.670;2022-10-23T05:36:59;100978.88;;;11.03;95.32
69624;BME280;56843;52.020;5.670;2022-10-23T05:38:33;100983.72;;;11.10;95.19
69624;BME280;56843;52.020;5.670;2022-10-23T05:40:10;100991.88;;;11.14;95.09
69624;BME280;56843;52.020;5.670;2022-10-23T05:41:42;100978.66;;;11.17;94.82
69624;BME280;56843;52.020;5.670;2022-10-23T05:43:13;100980.38;;;11.22;94.97
69624;BME280;56843;52.020;5.670;2022-10-23T05:45:19;100971.69;;;11.25;94.79
69624;BME280;56843;52.020;5.670;2022-10-23T05:47:08;100973.41;;;11.29;94.75
69624;BME280;56843;52.020;5.670;2022-10-23T05:48:57;100966.63;;;11.32;94.81
69624;BME280;56843;52.020;5.670;2022-10-23T05:50:55;100972.91;;;11.36;94.83
69624;BME280;56843;52.020;5.670;2022-10-23T05:52:39;100968.00;;;11.38;94.19
69624;BME280;56843;52.020;5.670;2022-10-23T05:54:42;100964.69;;;11.41;94.46
69624;BME280;56843;52.020;5.670;2022-10-23T05:56:25;100964.06;;;11.44;93.98
69624;BME280;56843;52.020;5.670;2022-10-23T05:58:09;100961.50;;;11.47;93.96
69624;BME280;56843;52.020;5.670;2022-10-23T06:00:00;100952.84;;;11.50;94.39
69624;BME280;56843;52.020;5.670;2022-10-23T06:01:52;100955.53;;;11.50;94.19
69624;BME280;56843;52.020;5.670;2022-10-23T06:03:35;100967.97;;;11.55;94.15
69624;BME280;56843;52.020;5.670;2022-10-23T06:05:09;100950.78;;;11.56;93.90
69624;BME280;56843;52.020;5.670;2022-10-23T06:07:10;100955.84;;;11.57;94.48
69624;BME280;56843;52.020;5.670;2022-10-23T06:08:41;100950.59;;;11.61;93.88
69624;BME280;56843;52.020;5.670;2022-10-23T06:10:11;100951.06;;;11.63;93.96
69624;BME280;56843;52.020;5.670;2022-10-23T06:11:48;100951.50;;;11.65;93.80
69624;BME280;56843;52.020;5.670;2022-10-23T06:13:23;100949.63;;;11.65;93.62
69624;BME280;56843;52.020;5.670;2022-10-23T06:14:54;100949.63;;;11.65;93.79
69624;BME280;56843;52.020;5.670;2022-10-23T06:16:31;100953.09;;;11.66;93.87
69624;BME280;56843;52.020;5.670;2022-10-23T06:18:03;100947.75;;;11.66;94.08
69624;BME280;56843;52.020;5.670;2022-10-23T06:19:37;100940.81;;;11.65;94.02
69624;BME280;56843;52.020;5.670;2022-10-23T06:21:07;100930.44;;;11.63;93.90
69624;BME280;56843;52.020;5.670;2022-10-23T06:22:38;100933.47;;;11.62;93.92
69624;BME280;56843;52.020;5.670;2022-10-23T06:24:24;100933.75;;;11.60;94.00
69624;BME280;56843;52.020;5.670;2022-10-23T06:26:07;100921.38;;;11.56;94.32
69624;BME280;56843;52.020;5.670;2022-10-23T06:27:47;100930.50;;;11.55;94.24
69624;BME280;56843;52.020;5.670;2022-10-23T06:29:18;100922.50;;;11.55;94.18
69624;BME280;56843;52.020;5.670;2022-10-23T06:30:48;100920.88;;;11.54;94.12
69624;BME280;56843;52.020;5.670;2022-10-23T06:32:19;100917.41;;;11.53;94.05
69624;BME280;56843;52.020;5.670;2022-10-23T06:34:02;100915.88;;;11.52;94.12
69624;BME280;56843;52.020;5.670;2022-10-23T06:35:34;100918.19;;;11.54;94.44
69624;BME280;56843;52.020;5.670;2022-10-23T06:37:05;100915.88;;;11.52;94.26
69624;BME280;56843;52.020;5.670;2022-10-23T06:38:54;100924.69;;;11.53;94.50
69624;BME280;56843;52.020;5.670;2022-10-23T06:40:30;100913.97;;;11.53;93.97
69624;BME280;56843;52.020;5.670;2022-10-23T06:42:05;100919.81;;;11.55;94.04
69624;BME280;56843;52.020;5.670;2022-10-23T06:43:53;100911.44;;;11.56;94.08
69624;BME280;56843;52.020;5.670;2022-10-23T06:45:46;100906.91;;;11.57;93.96
69624;BME280;56843;52.020;5.670;2022-10-23T06:47:16;100913.16;;;11.61;93.91
69624;BME280;56843;52.020;5.670;2022-10-23T06:49:09;100920.19;;;11.65;94.01
69624;BME280;56843;52.020;5.670;2022-10-23T06:50:48;100921.91;;;11.70;93.61
69624;BME280;56843;52.020;5.670;2022-10-23T06:52:23;100922.34;;;11.72;93.74
69624;BME280;56843;52.020;5.670;2022-10-23T06:53:55;100917.13;;;11.75;93.72
69624;BME280;56843;52.020;5.670;2022-10-23T06:55:44;100902.97;;;11.75;93.56
69624;BME280;56843;52.020;5.670;2022-10-23T06:57:15;100901.84;;;11.76;93.87
69624;BME280;56843;52.020;5.670;2022-10-23T06:58:49;100901.22;;;11.79;93.61
69624;BME280;56843;52.020;5.670;2022-10-23T07:00:19;100898.19;;;11.80;93.33
69624;BME280;56843;52.020;5.670;2022-10-23T07:01:54;100897.88;;;11.82;93.13
69624;BME280;56843;52.020;5.670;2022-10-23T07:03:26;100890.31;;;11.84;93.45
69624;BME280;56843;52.020;5.670;2022-10-23T07:04:57;100898.00;;;11.86;93.45
69624;BME280;56843;52.020;5.670;2022-10-23T07:06:27;100891.06;;;11.85;93.37
69624;BME280;56843;52.020;5.670;2022-10-23T07:07:58;100896.88;;;11.87;93.56
69624;BME280;56843;52.020;5.670;2022-10-23T07:09:34;100901.94;;;11.88;93.11
69624;BME280;56843;52.020;5.670;2022-10-23T07:11:25;100891.97;;;11.89;93.24
69624;BME280;56843;52.020;5.670;2022-10-23T07:12:59;100890.88;;;11.90;93.29
69624;BME280;56843;52.020;5.670;2022-10-23T07:14:50;100894.81;;;11.92;93.08
69624;BME280;56843;52.020;5.670;2022-10-23T07:16:22;100891.13;;;11.97;93.09
69624;BME280;56843;52.020;5.670;2022-10-23T07:17:53;100894.25;;;11.99;92.85
69624;BME280;56843;52.020;5.670;2022-10-23T07:19:25;100902.75;;;12.01;92.77
69624;BME280;56843;52.020;5.670;2022-10-23T07:21:00;100895.97;;;12.03;92.61
69624;BME280;56843;52.020;5.670;2022-10-23T07:22:33;100890.41;;;12.08;92.83
69624;BME280;56843;52.020;5.670;2022-10-23T07:24:16;100888.63;;;12.12;92.46
69624;BME280;56843;52.020;5.670;2022-10-23T07:25:47;100887.19;;;12.15;92.45
69624;BME280;56843;52.020;5.670;2022-10-23T07:27:24;100886.50;;;12.18;92.50
69624;BME280;56843;52.020;5.670;2022-10-23T07:28:59;100886.97;;;12.20;92.25
69624;BME280;56843;52.020;5.670;2022-10-23T07:30:30;100892.44;;;12.23;92.19
69624;BME280;56843;52.020;5.670;2022-10-23T07:32:02;100894.44;;;12.26;91.86
69624;BME280;56843;52.020;5.670;2022-10-23T07:33:33;100898.06;;;12.30;91.93
69624;BME280;56843;52.020;5.670;2022-10-23T07:35:12;100895.81;;;12.32;91.86
69624;BME280;56843;52.020;5.670;2022-10-23T07:36:46;100892.91;;;12.37;91.68
69624;BME280;56843;52.020;5.670;2022-10-23T07:38:17;100895.38;;;12.42;91.51
69624;BME280;56843;52.020;5.670;2022-10-23T07:39:51;100892.94;;;12.49;91.39
69624;BME280;56843;52.020;5.670;2022-10-23T07:41:21;100885.94;;;12.57;91.10
69624;BME280;56843;52.020;5.670;2022-10-23T07:42:52;100896.09;;;12.64;90.91
69624;BME280;56843;52.020;5.670;2022-10-23T07:44:23;100893.19;;;12.69;90.91
69624;BME280;56843;52.020;5.670;2022-10-23T07:45:54;100890.28;;;12.74;90.29
69624;BME280;56843;52.020;5.670;2022-10-23T07:47:33;100889.63;;;12.77;90.31
69624;BME280;56843;52.020;5.670;2022-10-23T07:49:04;100886.63;;;12.78;90.25
69624;BME280;56843;52.020;5.670;2022-10-23T07:50:37;100881.06;;;12.83;90.20
69624;BME280;56843;52.020;5.670;2022-10-23T07:52:08;100878.50;;;12.87;89.86
69624;BME280;56843;52.020;5.670;2022-10-23T07:53:58;100885.09;;;12.89;89.77
69624;BME280;56843;52.020;5.670;2022-10-23T07:55:54;100872.56;;;12.93;89.94
69624;BME280;56843;52.020;5.670;2022-10-23T07:57:25;100873.44;;;12.97;90.00
69624;BME280;56843;52.020;5.670;2022-10-23T07:59:06;100869.00;;;13.01;89.65
69624;BME280;56843;52.020;5.670;2022-10-23T08:00:39;100870.66;;;13.06;89.22
69624;BME280;56843;52.020;5.670;2022-10-23T08:02:17;100866.19;;;13.10;89.11
69624;BME280;56843;52.020;5.670;2022-10-23T08:03:48;100858.25;;;13.13;89.06
69624;BME280;56843;52.020;5.670;2022-10-23T08:05:19;100858.69;;;13.15;88.90
69624;BME280;56843;52.020;5.670;2022-10-23T08:06:56;100859.13;;;13.17;89.00
69624;BME280;56843;52.020;5.670;2022-10-23T08:08:29;100860.72;;;13.18;88.98
69624;BME280;56843;52.020;5.670;2022-10-23T08:10:05;100860.72;;;13.18;88.64
69624;BME280;56843;52.020;5.670;2022-10-23T08:11:41;100860.38;;;13.20;88.95
69624;BME280;56843;52.020;5.670;2022-10-23T08:13:15;100866.50;;;13.20;88.71
69624;BME280;56843;52.020;5.670;2022-10-23T08:14:55;100857.69;;;13.20;88.63
69624;BME280;56843;52.020;5.670;2022-10-23T08:16:27;100864.72;;;13.24;88.54
69624;BME280;56843;52.020;5.670;2022-10-23T08:18:03;100859.78;;;13.26;88.55
69624;BME280;56843;52.020;5.670;2022-10-23T08:19:47;100863.69;;;13.29;88.47
69624;BME280;56843;52.020;5.670;2022-10-23T08:21:19;100859.22;;;13.33;88.28
69624;BME280;56843;52.020;5.670;2022-10-23T08:22:51;100851.59;;;13.35;88.23
69624;BME280;56843;52.020;5.670;2022-10-23T08:24:27;100856.66;;;13.37;87.93
69624;BME280;56843;52.020;5.670;2022-10-23T08:25:59;100855.16;;;13.39;87.92
69624;BME280;56843;52.020;5.670;2022-10-23T08:27:33;100873.28;;;13.42;87.87
69624;BME280;56843;52.020;5.670;2022-10-23T08:29:03;100857.63;;;13.44;87.87
69624;BME280;56843;52.020;5.670;2022-10-23T08:30:34;100854.72;;;13.49;87.69
69624;BME280;56843;52.020;5.670;2022-10-23T08:32:05;100860.94;;;13.53;87.90
69624;BME280;56843;52.020;5.670;2022-10-23T08:33:55;100852.31;;;13.60;87.01
69624;BME280;56843;52.020;5.670;2022-10-23T08:35:26;100852.88;;;13.65;86.78
69624;BME280;56843;52.020;5.670;2022-10-23T08:36:56;100851.84;;;13.70;86.73
69624;BME280;56843;52.020;5.670;2022-10-23T08:38:28;100841.56;;;13.72;86.56
69624;BME280;56843;52.020;5.670;2022-10-23T08:39:58;100834.25;;;13.72;86.62
69624;BME280;56843;52.020;5.670;2022-10-23T08:41:51;100827.09;;;13.76;86.55
69624;BME280;56843;52.020;5.670;2022-10-23T08:43:42;100834.47;;;13.79;86.20
69624;BME280;56843;52.020;5.670;2022-10-23T08:47:40;100831.88;;;13.83;85.91
69624;BME280;56843;52.020;5.670;2022-10-23T08:56:40;100826.66;;;14.02;85.04